Time;durP1;ratioP1;P1;durP2;ratioP2;P2;SDS_P1;SDS_P2;PMS_P1;PMS_P2;Temp;Humidity;BMP_temperature;BMP_pressure;BME280_temperature;BME280_humidity;BME280_pressure;Samples;Min_cycle;Max_cycle;Signal;HPM_P1;HPM_P2
2022/07/06 00:00:32;;;;;;;6.80;1.08;;;14.80;99.90;;;;;;5025753;28;20088;-79
2022/07/06 00:02:58;;;;;;;5.82;1.25;;;14.80;99.90;;;;;;5060580;28;20041;-79
2022/07/06 00:05:24;;;;;;;5.40;1.17;;;14.80;99.90;;;;;;5070627;28;20049;-77
2022/07/06 00:07:50;;;;;;;6.55;1.10;;;14.80;99.90;;;;;;5054031;28;20071;-77
2022/07/06 00:10:16;;;;;;;5.90;1.20;;;14.80;99.90;;;;;;5088848;28;20391;-72
2022/07/06 00:12:41;;;;;;;6.22;1.20;;;14.80;99.90;;;;;;5046433;28;21195;-81
2022/07/06 00:15:07;;;;;;;7.47;1.40;;;14.70;99.90;;;;;;5052160;28;20045;-80
2022/07/06 00:17:34;;;;;;;6.38;1.35;;;14.70;99.90;;;;;;5018874;28;20045;-78
2022/07/06 00:19:59;;;;;;;8.52;1.45;;;14.70;99.90;;;;;;5051099;28;20135;-79
2022/07/06 00:22:25;;;;;;;6.55;1.23;;;14.70;99.90;;;;;;5038540;28;20509;-77
2022/07/06 00:24:51;;;;;;;4.88;1.15;;;14.60;99.90;;;;;;5020511;28;20067;-78
2022/07/06 00:27:17;;;;;;;5.63;1.13;;;14.50;99.90;;;;;;5036591;28;20132;-77
2022/07/06 00:29:43;;;;;;;7.45;1.20;;;14.50;99.90;;;;;;5060870;28;20095;-77
2022/07/06 00:32:13;;;;;;;5.18;1.00;;;14.50;99.90;;;;;;5082335;28;20135;-76
2022/07/06 00:34:39;;;;;;;5.88;1.10;;;14.50;99.90;;;;;;5056246;28;20142;-76
2022/07/06 00:37:06;;;;;;;6.63;1.42;;;14.50;99.90;;;;;;5032544;28;20242;-79
2022/07/06 00:39:32;;;;;;;4.38;1.00;;;14.40;99.90;;;;;;5073068;28;20103;-77
2022/07/06 00:41:58;;;;;;;6.47;1.50;;;14.50;99.90;;;;;;5038922;28;20033;-79
2022/07/06 00:44:24;;;;;;;6.18;1.17;;;14.50;99.90;;;;;;5023213;28;20090;-78
2022/07/06 00:46:50;;;;;;;9.30;1.27;;;14.40;99.90;;;;;;5038384;28;20122;-76
2022/07/06 00:52:15;;;;;;;6.78;1.33;;;14.40;99.90;;;;;;4980752;28;20065;-78
2022/07/06 00:54:43;;;;;;;7.22;1.30;;;14.40;99.90;;;;;;4980059;28;20513;-77
2022/07/06 00:57:09;;;;;;;4.47;1.27;;;14.20;99.90;;;;;;4961372;28;20038;-79
2022/07/06 00:59:35;;;;;;;6.32;1.08;;;14.40;99.90;;;;;;4980257;28;21281;-78
2022/07/06 01:02:01;;;;;;;5.10;1.00;;;14.30;99.90;;;;;;4976752;28;20084;-77
2022/07/06 01:04:28;;;;;;;2.85;1.05;;;14.30;99.90;;;;;;4979075;28;20046;-77
2022/07/06 01:06:55;;;;;;;6.22;1.10;;;14.40;99.90;;;;;;4982363;28;20403;-79
2022/07/06 01:09:20;;;;;;;6.65;1.50;;;14.40;99.90;;;;;;4964275;28;20088;-79
2022/07/06 01:11:46;;;;;;;7.97;1.35;;;14.40;99.90;;;;;;4962178;28;20080;-78
2022/07/06 01:14:13;;;;;;;4.95;1.13;;;14.40;99.90;;;;;;4981044;28;20049;-78
2022/07/06 01:16:39;;;;;;;14.25;1.30;;;14.30;99.90;;;;;;4983731;28;20477;-77
2022/07/06 01:19:05;;;;;;;2.95;0.95;;;14.40;99.90;;;;;;4980685;28;20120;-82
2022/07/06 01:21:31;;;;;;;4.53;1.60;;;14.30;99.90;;;;;;4979183;28;20053;-79
2022/07/06 01:23:56;;;;;;;4.60;1.27;;;14.30;99.90;;;;;;4985696;28;20042;-80
2022/07/06 01:26:22;;;;;;;8.77;2.15;;;14.30;99.90;;;;;;4987062;28;20038;-80
2022/07/06 01:28:50;;;;;;;7.70;1.77;;;14.30;99.90;;;;;;5029396;28;20056;-78
2022/07/06 01:31:18;;;;;;;8.38;1.40;;;14.30;99.90;;;;;;5036646;28;20032;-75
2022/07/06 01:33:44;;;;;;;6.10;1.13;;;14.30;99.90;;;;;;5019918;28;20037;-77
2022/07/06 01:36:10;;;;;;;6.82;1.35;;;14.30;99.90;;;;;;5022691;28;20079;-79
2022/07/06 01:38:51;;;;;;;7.85;1.60;;;14.30;99.90;;;;;;5036121;28;20112;-79
2022/07/06 01:41:18;;;;;;;5.25;1.27;;;14.40;99.90;;;;;;5053698;28;20055;-79
2022/07/06 01:43:44;;;;;;;5.90;1.40;;;14.30;99.90;;;;;;5038324;28;20076;-80
2022/07/06 01:46:10;;;;;;;7.28;1.08;;;14.40;99.90;;;;;;5044575;28;20444;-81
2022/07/06 01:48:36;;;;;;;4.22;1.20;;;14.30;99.90;;;;;;5069397;28;20079;-79
2022/07/06 01:51:03;;;;;;;4.95;1.13;;;14.40;99.90;;;;;;5017510;28;20079;-77
2022/07/06 01:53:29;;;;;;;5.53;1.05;;;14.40;99.90;;;;;;5019662;28;20106;-79
2022/07/06 01:55:54;;;;;;;6.10;1.30;;;14.40;99.90;;;;;;5059799;28;20041;-78
2022/07/06 01:58:20;;;;;;;6.85;1.60;;;14.40;99.90;;;;;;5068637;28;20448;-78
2022/07/06 02:00:46;;;;;;;6.88;1.50;;;14.40;99.90;;;;;;5042697;28;20045;-76
2022/07/06 02:03:11;;;;;;;5.70;1.50;;;14.40;99.90;;;;;;5058616;28;20045;-79
2022/07/06 02:05:37;;;;;;;4.82;1.17;;;14.40;99.90;;;;;;5058401;28;20032;-79
2022/07/06 02:08:03;;;;;;;7.22;1.40;;;14.30;99.90;;;;;;5028226;28;20053;-79
2022/07/06 02:10:28;;;;;;;6.95;1.33;;;14.40;99.90;;;;;;5051097;28;20156;-80
2022/07/06 02:12:54;;;;;;;6.18;1.20;;;14.30;99.90;;;;;;5055741;28;20128;-78
2022/07/06 02:15:20;;;;;;;7.45;1.20;;;14.30;99.90;;;;;;5053316;28;20142;-80
2022/07/06 02:17:45;;;;;;;6.97;1.60;;;14.30;99.90;;;;;;5018851;28;20046;-80
2022/07/06 02:20:11;;;;;;;5.22;1.40;;;14.20;99.90;;;;;;5068241;28;20106;-78
2022/07/06 02:22:37;;;;;;;4.50;1.15;;;14.20;99.90;;;;;;5051562;28;20545;-79
2022/07/06 02:25:05;;;;;;;4.07;1.10;;;14.20;99.90;;;;;;5025334;28;20049;-80
2022/07/06 02:27:32;;;;;;;5.88;1.27;;;14.10;99.90;;;;;;5043100;28;20643;-79
2022/07/06 02:29:57;;;;;;;6.97;1.30;;;14.10;99.90;;;;;;5039096;28;20086;-79
2022/07/06 02:32:23;;;;;;;4.57;1.40;;;14.00;99.90;;;;;;5039125;28;20052;-80
2022/07/06 02:38:29;;;;;;;4.88;1.27;;;14.00;99.90;;;;;;5044938;28;20045;-79
2022/07/06 02:40:55;;;;;;;3.42;1.10;;;13.90;99.90;;;;;;5034414;28;20056;-80
2022/07/06 02:43:21;;;;;;;11.25;1.15;;;13.80;99.90;;;;;;5047926;28;20059;-81
2022/07/06 02:45:46;;;;;;;7.97;1.60;;;13.70;99.90;;;;;;5045640;28;20025;-81
2022/07/06 02:48:12;;;;;;;9.98;1.55;;;13.70;99.90;;;;;;5038154;28;20130;-79
2022/07/06 02:54:19;;;;;;;9.38;1.63;;;13.60;99.90;;;;;;5058434;28;20083;-74
2022/07/06 02:56:50;;;;;;;7.95;1.45;;;13.60;99.90;;;;;;5057963;28;20321;-81
2022/07/06 02:59:16;;;;;;;9.13;1.42;;;13.50;99.90;;;;;;5075905;28;20163;-79
2022/07/06 03:01:42;;;;;;;6.28;1.50;;;13.50;99.90;;;;;;5044659;28;20141;-79
2022/07/06 03:04:07;;;;;;;6.38;1.40;;;13.40;99.90;;;;;;5044345;28;20053;-80
2022/07/06 03:06:33;;;;;;;5.45;1.17;;;13.40;99.90;;;;;;5025756;28;20118;-77
2022/07/06 03:09:02;;;;;;;8.63;1.75;;;13.40;99.90;;;;;;5026609;28;20205;-79
2022/07/06 03:11:27;;;;;;;11.05;1.40;;;13.30;99.90;;;;;;5042036;28;20033;-78
2022/07/06 03:13:53;;;;;;;5.25;1.45;;;13.30;99.90;;;;;;5028399;28;20049;-79
2022/07/06 03:16:19;;;;;;;9.50;1.60;;;13.30;99.90;;;;;;5048575;28;20076;-80
2022/07/06 03:18:44;;;;;;;6.65;1.70;;;13.30;99.90;;;;;;5045047;28;20118;-80
2022/07/06 03:21:10;;;;;;;10.30;1.90;;;13.20;99.90;;;;;;5029484;28;20373;-79
2022/07/06 03:23:36;;;;;;;6.30;1.40;;;13.20;99.90;;;;;;5085668;28;20437;-77
2022/07/06 03:26:03;;;;;;;5.40;1.30;;;13.20;99.90;;;;;;5057751;28;20041;-76
2022/07/06 03:28:29;;;;;;;7.60;1.67;;;13.20;99.90;;;;;;5061837;28;20052;-78
2022/07/06 03:30:54;;;;;;;4.82;1.20;;;13.10;99.90;;;;;;5083054;28;20103;-79
2022/07/06 03:33:23;;;;;;;9.80;1.40;;;13.10;99.90;;;;;;5040810;28;20164;-79
2022/07/06 03:35:49;;;;;;;5.95;1.52;;;13.10;99.90;;;;;;5029515;28;20041;-78
2022/07/06 03:38:15;;;;;;;4.95;1.20;;;13.10;99.90;;;;;;5045477;28;20102;-78
2022/07/06 03:40:41;;;;;;;6.15;1.25;;;13.00;99.90;;;;;;5045836;28;20052;-79
2022/07/06 03:43:06;;;;;;;5.15;1.30;;;13.10;99.90;;;;;;5042205;28;20045;-77
2022/07/06 03:45:32;;;;;;;13.60;1.75;;;13.10;99.90;;;;;;5044198;28;20038;-77
2022/07/06 03:47:57;;;;;;;7.80;1.63;;;13.10;99.90;;;;;;5029944;28;20056;-79
2022/07/06 03:50:23;;;;;;;7.60;1.33;;;13.00;99.90;;;;;;5043284;28;20174;-82
2022/07/06 03:52:49;;;;;;;8.20;1.63;;;13.00;99.90;;;;;;5046985;28;20130;-79
2022/07/06 03:55:14;;;;;;;11.95;1.58;;;13.00;99.90;;;;;;5044916;28;20052;-81
2022/07/06 03:57:40;;;;;;;9.13;1.52;;;13.00;99.90;;;;;;5051626;28;20053;-79
2022/07/06 04:00:07;;;;;;;7.50;1.50;;;13.00;99.90;;;;;;5030054;28;20036;-79
2022/07/06 04:02:33;;;;;;;7.47;1.60;;;13.00;99.90;;;;;;5056522;28;20470;-79
2022/07/06 04:04:58;;;;;;;6.85;1.50;;;13.00;99.90;;;;;;5042435;28;20033;-81
2022/07/06 04:07:25;;;;;;;8.57;1.75;;;13.10;99.90;;;;;;5025313;28;20116;-78
2022/07/06 04:09:51;;;;;;;8.25;1.65;;;13.10;99.90;;;;;;5055369;28;20040;-78
2022/07/06 04:12:16;;;;;;;7.15;1.30;;;13.20;99.90;;;;;;5029636;28;20040;-82
2022/07/06 04:14:43;;;;;;;8.93;1.45;;;13.30;99.90;;;;;;5034193;28;20502;-81
2022/07/06 04:19:53;;;;;;;5.75;1.42;;;13.40;99.90;;;;;;5059029;28;20052;-78
2022/07/06 04:22:18;;;;;;;8.20;1.50;;;13.30;99.90;;;;;;5042325;28;20095;-81
2022/07/06 04:24:44;;;;;;;6.50;1.30;;;13.40;99.90;;;;;;5028780;28;20061;-81
2022/07/06 04:27:10;;;;;;;8.40;1.60;;;13.40;99.90;;;;;;5066817;28;20037;-80
2022/07/06 04:29:36;;;;;;;7.35;1.27;;;13.40;99.90;;;;;;5059282;28;20460;-77
2022/07/06 04:32:05;;;;;;;6.43;1.27;;;13.40;99.90;;;;;;5042335;28;20032;-78
2022/07/06 04:34:30;;;;;;;7.32;1.10;;;13.50;99.90;;;;;;5049139;28;20040;-79
2022/07/06 04:36:56;;;;;;;5.90;1.20;;;13.50;99.90;;;;;;5035911;28;20060;-79
2022/07/06 04:39:22;;;;;;;5.88;0.98;;;13.50;99.90;;;;;;5054989;28;20118;-79
2022/07/06 04:41:47;;;;;;;5.63;1.10;;;13.50;99.90;;;;;;5033835;28;20413;-78
2022/07/06 04:44:13;;;;;;;6.03;1.10;;;13.60;99.90;;;;;;5069982;28;20032;-78
2022/07/06 04:46:38;;;;;;;5.43;1.10;;;13.50;99.90;;;;;;5033675;28;20049;-80
2022/07/06 04:49:04;;;;;;;5.68;1.15;;;13.60;99.90;;;;;;5038049;28;20416;-79
2022/07/06 04:51:30;;;;;;;10.77;1.33;;;13.60;99.90;;;;;;5065181;28;20051;-80
2022/07/06 04:53:55;;;;;;;4.15;0.80;;;13.60;99.90;;;;;;5090190;28;20044;-77
2022/07/06 04:56:21;;;;;;;7.93;0.80;;;13.60;99.90;;;;;;5061824;28;20054;-78
2022/07/06 04:58:47;;;;;;;5.45;0.85;;;13.60;99.90;;;;;;5068726;28;20063;-79
2022/07/06 05:01:12;;;;;;;9.38;1.02;;;13.70;99.90;;;;;;5051132;28;20037;-79
2022/07/06 05:03:40;;;;;;;3.75;0.75;;;13.80;99.90;;;;;;5031084;28;20045;-81
2022/07/06 05:06:07;;;;;;;3.05;0.80;;;13.90;99.90;;;;;;5042119;28;20093;-77
2022/07/06 05:08:33;;;;;;;4.40;1.13;;;14.00;99.90;;;;;;5060502;28;20036;-78
2022/07/06 05:10:59;;;;;;;5.43;1.10;;;14.10;99.90;;;;;;5076411;28;20039;-82
2022/07/06 05:13:24;;;;;;;7.63;1.05;;;14.20;99.90;;;;;;5044919;28;20666;-78
2022/07/06 05:15:50;;;;;;;8.10;1.27;;;14.30;99.90;;;;;;5048345;28;20040;-78
2022/07/06 05:18:16;;;;;;;4.88;1.05;;;14.30;99.90;;;;;;5077322;28;20079;-81
2022/07/06 05:20:42;;;;;;;10.65;1.35;;;14.40;99.90;;;;;;5029556;28;20394;-80
2022/07/06 05:23:08;;;;;;;8.43;1.10;;;14.40;99.90;;;;;;5045191;28;20048;-81
2022/07/06 05:25:36;;;;;;;7.65;1.08;;;14.50;99.90;;;;;;5033769;28;20049;-81
2022/07/06 05:28:04;;;;;;;12.57;1.52;;;14.50;99.90;;;;;;5048547;28;20052;-81
2022/07/06 05:30:30;;;;;;;7.22;1.20;;;14.50;99.90;;;;;;5045512;28;20044;-80
2022/07/06 05:32:56;;;;;;;6.28;1.17;;;14.50;99.90;;;;;;5026514;28;20063;-83
2022/07/06 05:35:23;;;;;;;6.03;1.02;;;14.60;99.90;;;;;;5024135;28;20040;-78
2022/07/06 05:37:48;;;;;;;8.55;1.40;;;14.60;99.90;;;;;;5062378;28;20511;-78
2022/07/06 05:40:14;;;;;;;8.38;1.38;;;14.70;99.90;;;;;;5068069;28;20037;-80
2022/07/06 05:42:39;;;;;;;5.57;1.13;;;14.60;99.90;;;;;;5055851;28;20032;-79
2022/07/06 05:45:06;;;;;;;5.15;1.10;;;14.70;99.90;;;;;;5090683;28;20110;-74
2022/07/06 05:50:17;;;;;;;6.50;1.08;;;14.80;99.90;;;;;;5064534;28;20052;-78
2022/07/06 05:52:54;;;;;;;8.45;1.02;;;14.90;99.90;;;;;;5044797;28;20048;-82
2022/07/06 05:55:20;;;;;;;5.03;1.10;;;14.90;99.90;;;;;;5075963;28;20032;-79
2022/07/06 05:57:45;;;;;;;4.20;0.82;;;14.90;99.90;;;;;;5029395;28;20400;-81
2022/07/06 06:00:12;;;;;;;8.55;1.02;;;14.90;99.90;;;;;;5084415;28;20043;-80
2022/07/06 06:02:41;;;;;;;3.97;0.90;;;15.10;99.90;;;;;;5037535;28;20155;-78
2022/07/06 06:05:09;;;;;;;4.65;0.80;;;15.10;99.90;;;;;;5036711;28;20160;-79
2022/07/06 06:07:38;;;;;;;5.25;1.05;;;15.00;99.90;;;;;;5068759;28;20036;-79
2022/07/06 06:10:10;;;;;;;8.90;1.00;;;14.90;99.90;;;;;;5053099;28;20048;-78
2022/07/06 06:12:36;;;;;;;5.60;0.93;;;14.90;99.90;;;;;;5050971;28;20440;-80
2022/07/06 06:15:02;;;;;;;7.00;1.10;;;14.90;99.90;;;;;;5048551;28;20028;-78
2022/07/06 06:17:27;;;;;;;7.60;0.90;;;14.80;99.90;;;;;;5082369;28;20451;-78
2022/07/06 06:19:53;;;;;;;7.13;1.05;;;14.90;99.90;;;;;;5063726;28;20373;-80
2022/07/06 06:22:19;;;;;;;5.57;1.05;;;14.90;99.90;;;;;;5064447;28;20101;-77
2022/07/06 06:24:45;;;;;;;7.53;1.10;;;14.90;99.90;;;;;;5070821;28;20532;-77
2022/07/06 06:27:11;;;;;;;5.13;1.20;;;15.00;99.90;;;;;;5051964;28;20115;-76
2022/07/06 06:29:41;;;;;;;7.28;1.02;;;15.00;99.90;;;;;;5049477;28;20040;-79
2022/07/06 06:32:07;;;;;;;6.82;1.10;;;15.00;99.90;;;;;;5078563;28;20133;-78
2022/07/06 06:34:32;;;;;;;8.02;1.70;;;14.80;99.90;;;;;;5028833;28;20053;-79
2022/07/06 06:36:58;;;;;;;3.90;1.00;;;14.90;99.90;;;;;;5073999;28;20564;-80
2022/07/06 06:39:25;;;;;;;12.48;1.35;;;14.80;99.90;;;;;;5062455;28;20622;-79
2022/07/06 06:41:50;;;;;;;5.20;1.00;;;14.80;99.90;;;;;;5015629;28;20048;-79
2022/07/06 06:44:17;;;;;;;8.50;1.33;;;14.90;99.90;;;;;;5074301;28;20033;-80
2022/07/06 06:46:43;;;;;;;8.50;1.20;;;14.90;99.90;;;;;;5028409;28;20036;-79
2022/07/06 06:49:09;;;;;;;6.97;1.50;;;15.00;99.90;;;;;;5059881;28;20043;-78
2022/07/06 06:51:37;;;;;;;10.88;1.65;;;15.10;99.90;;;;;;5058192;28;20140;-77
2022/07/06 06:54:03;;;;;;;8.63;1.70;;;15.20;99.90;;;;;;5024490;28;20549;-77
2022/07/06 06:56:29;;;;;;;6.45;1.33;;;15.30;99.90;;;;;;5061132;28;20982;-78
2022/07/06 06:58:54;;;;;;;6.40;1.20;;;15.50;99.90;;;;;;5077588;28;20058;-76
2022/07/06 07:01:20;;;;;;;6.57;1.15;;;15.70;99.90;;;;;;5061036;28;20043;-78
2022/07/06 07:03:46;;;;;;;5.93;1.42;;;15.90;99.90;;;;;;5052091;28;20510;-76
2022/07/06 07:06:11;;;;;;;7.85;1.00;;;15.90;99.90;;;;;;5064601;28;20033;-76
2022/07/06 07:08:37;;;;;;;6.60;1.20;;;16.00;99.90;;;;;;5057221;28;20119;-75
2022/07/06 07:11:02;;;;;;;9.05;1.17;;;16.10;99.90;;;;;;5041091;28;20044;-78
2022/07/06 07:13:28;;;;;;;8.25;1.65;;;15.90;99.90;;;;;;5026812;28;20139;-78
2022/07/06 07:15:54;;;;;;;4.72;0.95;;;15.80;99.90;;;;;;5068929;28;20436;-78
2022/07/06 07:18:19;;;;;;;5.93;1.10;;;15.80;99.90;;;;;;5049299;28;20040;-76
2022/07/06 07:20:45;;;;;;;5.10;1.02;;;15.80;99.90;;;;;;5082091;28;20051;-78
2022/07/06 07:23:11;;;;;;;7.50;1.48;;;15.70;99.90;;;;;;5034472;28;20048;-77
2022/07/06 07:25:39;;;;;;;8.60;1.10;;;15.60;99.90;;;;;;5080177;28;20044;-77
2022/07/06 07:28:05;;;;;;;5.78;1.17;;;15.70;99.90;;;;;;5085836;28;20044;-77
2022/07/06 07:30:33;;;;;;;6.53;1.00;;;15.80;99.90;;;;;;5050246;28;20040;-77
2022/07/06 07:33:00;;;;;;;3.60;0.77;;;15.90;99.90;;;;;;5084186;28;20084;-78
2022/07/06 07:35:27;;;;;;;8.77;1.17;;;16.10;99.90;;;;;;5082973;28;20491;-78
2022/07/06 07:37:53;;;;;;;6.90;1.02;;;16.30;99.90;;;;;;5045690;28;20041;-79
2022/07/06 07:40:18;;;;;;;5.03;0.90;;;16.70;99.90;;;;;;5050833;28;20036;-78
2022/07/06 07:42:45;;;;;;;7.30;1.17;;;16.80;99.90;;;;;;5049889;28;20490;-78
2022/07/06 07:45:12;;;;;;;4.45;0.98;;;17.10;99.90;;;;;;5051869;28;20041;-78
2022/07/06 07:47:38;;;;;;;4.45;0.90;;;17.20;99.90;;;;;;5078543;28;20048;-78
2022/07/06 07:50:05;;;;;;;4.05;0.75;;;17.30;99.90;;;;;;5057360;28;20040;-76
2022/07/06 07:52:31;;;;;;;4.32;0.80;;;17.20;99.90;;;;;;5054129;28;20059;-80
2022/07/06 07:54:59;;;;;;;5.85;0.80;;;17.30;99.90;;;;;;5029881;28;20055;-76
2022/07/06 07:57:25;;;;;;;5.72;1.45;;;17.40;99.90;;;;;;5023800;28;20467;-76
2022/07/06 07:59:50;;;;;;;3.47;0.77;;;17.50;99.90;;;;;;5077510;28;22173;-74
2022/07/06 08:02:16;;;;;;;7.97;0.85;;;17.30;99.90;;;;;;5079856;28;20036;-73
2022/07/06 08:04:42;;;;;;;4.03;0.80;;;17.50;99.90;;;;;;5074983;28;20462;-73
2022/07/06 08:07:08;;;;;;;4.05;0.85;;;17.50;99.90;;;;;;5079045;28;20040;-74
2022/07/06 08:09:34;;;;;;;4.75;0.70;;;17.50;99.90;;;;;;5074041;28;20076;-75
2022/07/06 08:11:59;;;;;;;4.15;0.70;;;17.50;99.90;;;;;;5010378;28;20044;-76
2022/07/06 08:14:25;;;;;;;4.53;0.60;;;17.70;99.90;;;;;;5023770;28;20040;-79
2022/07/06 08:16:51;;;;;;;5.43;0.70;;;17.60;99.90;;;;;;5027398;28;20058;-77
2022/07/06 08:19:17;;;;;;;6.07;0.88;;;17.60;99.90;;;;;;5082904;28;20238;-78
2022/07/06 08:21:43;;;;;;;3.58;0.50;;;17.60;99.90;;;;;;5044872;28;20043;-76
2022/07/06 08:24:09;;;;;;;4.13;0.50;;;17.70;99.90;;;;;;5039878;28;20122;-78
2022/07/06 08:26:35;;;;;;;6.28;0.63;;;17.80;99.90;;;;;;5046751;28;20064;-79
2022/07/06 08:29:02;;;;;;;2.50;0.47;;;17.90;99.90;;;;;;5050415;28;20130;-75
2022/07/06 08:31:28;;;;;;;3.75;0.70;;;18.00;99.90;;;;;;5055857;28;20037;-72
2022/07/06 08:33:57;;;;;;;3.58;0.70;;;18.10;99.90;;;;;;5059265;28;20106;-74
2022/07/06 08:36:23;;;;;;;3.70;0.77;;;18.20;99.90;;;;;;5050547;28;20093;-77
2022/07/06 08:38:49;;;;;;;2.20;0.50;;;18.20;99.90;;;;;;5077104;28;20045;-81
2022/07/06 08:41:16;;;;;;;2.20;0.50;;;18.20;99.90;;;;;;5040606;28;20052;-79
2022/07/06 08:43:42;;;;;;;4.63;0.70;;;18.10;99.90;;;;;;5052887;28;20107;-77
2022/07/06 08:46:08;;;;;;;4.65;0.82;;;18.10;99.90;;;;;;5043225;28;20075;-76
2022/07/06 08:48:40;;;;;;;3.92;0.80;;;18.20;99.90;;;;;;5045095;28;20088;-76
2022/07/06 08:51:09;;;;;;;4.65;0.70;;;18.30;99.90;;;;;;5048007;28;20078;-76
2022/07/06 08:53:35;;;;;;;1.88;0.50;;;18.50;99.90;;;;;;5028924;28;20100;-78
2022/07/06 08:56:04;;;;;;;4.97;0.80;;;18.50;99.90;;;;;;5039973;28;20063;-79
2022/07/06 08:58:31;;;;;;;3.97;0.50;;;18.50;99.90;;;;;;5056194;28;20054;-77
2022/07/06 09:00:57;;;;;;;3.95;0.60;;;18.20;99.90;;;;;;5057908;28;20091;-78
2022/07/06 09:03:24;;;;;;;5.13;0.80;;;17.90;99.90;;;;;;5031023;28;20064;-79
2022/07/06 09:05:51;;;;;;;5.35;0.80;;;17.70;99.90;;;;;;5083922;28;20068;-79
2022/07/06 09:08:19;;;;;;;4.15;0.70;;;17.60;99.90;;;;;;5081543;28;20095;-76
2022/07/06 09:10:45;;;;;;;5.13;0.73;;;17.60;99.90;;;;;;5049813;28;20044;-77
2022/07/06 09:13:10;;;;;;;6.68;0.90;;;17.60;99.90;;;;;;5081262;28;20030;-80
2022/07/06 09:15:39;;;;;;;6.18;0.70;;;17.70;99.90;;;;;;5076503;28;20033;-76
2022/07/06 09:18:05;;;;;;;7.50;0.60;;;17.70;99.90;;;;;;5053162;28;20055;-78
2022/07/06 09:20:31;;;;;;;8.05;1.02;;;18.00;99.90;;;;;;5026629;28;20037;-78
2022/07/06 09:23:06;;;;;;;4.90;0.95;;;18.00;99.90;;;;;;5056915;28;20036;-77
2022/07/06 09:25:34;;;;;;;4.93;0.70;;;18.10;99.90;;;;;;5023338;28;20380;-77
2022/07/06 09:28:01;;;;;;;6.47;1.13;;;18.40;99.90;;;;;;5051420;28;20045;-77
2022/07/06 09:30:28;;;;;;;3.85;0.93;;;18.70;99.90;;;;;;5037370;28;20109;-78
2022/07/06 09:32:56;;;;;;;6.97;1.10;;;18.70;99.90;;;;;;5033140;28;20041;-77
2022/07/06 09:35:26;;;;;;;5.10;0.80;;;18.70;99.90;;;;;;5057208;28;20041;-80
2022/07/06 09:38:09;;;;;;;3.92;0.63;;;18.60;99.90;;;;;;5038681;28;20053;-78
2022/07/06 09:40:45;;;;;;;7.70;1.08;;;18.90;99.90;;;;;;5046625;28;20518;-80
2022/07/06 09:43:18;;;;;;;7.22;1.08;;;19.20;99.90;;;;;;5047019;28;20178;-77
2022/07/06 09:45:50;;;;;;;11.20;1.25;;;19.10;99.90;;;;;;5037867;28;20040;-78
2022/07/06 09:48:21;;;;;;;4.57;0.70;;;19.20;99.90;;;;;;5026269;28;20033;-78
2022/07/06 09:50:54;;;;;;;4.05;0.60;;;19.00;99.90;;;;;;5043422;28;20476;-79
2022/07/06 09:53:23;;;;;;;6.25;1.15;;;19.00;99.90;;;;;;5029450;28;20048;-78
2022/07/06 09:55:52;;;;;;;2.63;0.75;;;18.90;99.90;;;;;;5091747;28;20104;-78
2022/07/06 09:58:19;;;;;;;5.32;0.82;;;19.10;99.90;;;;;;5089956;28;20445;-74
2022/07/06 10:00:46;;;;;;;5.28;0.77;;;19.30;99.90;;;;;;5067594;28;20041;-78
2022/07/06 10:03:12;;;;;;;3.55;0.82;;;19.20;99.90;;;;;;5035785;28;20065;-77
2022/07/06 10:05:40;;;;;;;3.28;0.98;;;19.10;99.90;;;;;;5034607;28;20033;-78
2022/07/06 10:08:09;;;;;;;6.03;0.82;;;19.00;99.90;;;;;;5053767;28;20043;-77
2022/07/06 10:10:35;;;;;;;8.30;1.17;;;19.00;99.90;;;;;;5070959;28;20037;-76
2022/07/06 10:13:03;;;;;;;4.10;0.90;;;19.00;99.90;;;;;;5036879;28;20095;-77
2022/07/06 10:15:31;;;;;;;8.20;0.88;;;19.00;99.90;;;;;;5022473;28;20040;-76
2022/07/06 10:18:01;;;;;;;6.82;1.20;;;19.00;99.90;;;;;;5084128;28;20049;-77
2022/07/06 10:20:33;;;;;;;4.88;0.95;;;19.20;99.90;;;;;;5052884;28;20080;-75
2022/07/06 10:23:01;;;;;;;8.80;0.85;;;19.40;99.90;;;;;;5053280;28;20080;-76
2022/07/06 10:25:31;;;;;;;2.63;0.80;;;19.70;99.90;;;;;;5050907;28;20148;-76
2022/07/06 10:27:57;;;;;;;4.13;0.88;;;19.80;99.90;;;;;;5034815;28;20360;-76
2022/07/06 10:30:25;;;;;;;4.78;0.95;;;20.10;99.90;;;;;;5068827;28;20037;-77
2022/07/06 10:32:51;;;;;;;4.80;0.70;;;20.20;99.90;;;;;;5069591;28;20040;-77
2022/07/06 10:35:18;;;;;;;4.32;1.00;;;20.20;99.90;;;;;;5068732;28;20056;-76
2022/07/06 10:41:33;;;;;;;4.78;0.98;;;20.40;99.90;;;;;;5055935;28;20443;-75
2022/07/06 10:44:19;;;;;;;3.22;0.77;;;20.20;99.90;;;;;;5040271;28;20495;-75
2022/07/06 10:46:56;;;;;;;3.17;1.00;;;20.30;99.90;;;;;;5050342;28;20037;-77
2022/07/06 10:49:23;;;;;;;4.82;0.75;;;20.30;99.90;;;;;;5051360;28;20496;-76
2022/07/06 10:51:49;;;;;;;5.60;0.80;;;20.70;99.90;;;;;;5034736;28;20159;-78
2022/07/06 10:54:17;;;;;;;4.40;0.88;;;20.90;99.90;;;;;;5084626;28;20041;-78
2022/07/06 10:56:48;;;;;;;3.60;0.60;;;20.60;99.90;;;;;;5042304;28;20475;-76
2022/07/06 10:59:21;;;;;;;3.72;0.80;;;20.10;99.90;;;;;;5048303;28;20053;-77
2022/07/06 11:02:15;;;;;;;4.20;0.63;;;19.90;99.90;;;;;;5044734;28;20044;-77
2022/07/06 11:04:43;;;;;;;6.23;1.10;;;20.20;99.90;;;;;;5028837;28;20048;-77
2022/07/06 11:07:19;;;;;;;2.45;0.50;;;20.60;99.90;;;;;;5027798;28;20096;-76
2022/07/06 11:09:59;;;;;;;2.58;0.60;;;21.10;99.90;;;;;;5025710;28;20099;-74
2022/07/06 11:12:25;;;;;;;4.22;0.63;;;21.20;99.90;;;;;;5090844;28;20483;-73
2022/07/06 11:14:52;;;;;;;5.00;1.02;;;21.10;99.90;;;;;;5057518;28;20139;-74
2022/07/06 11:17:18;;;;;;;4.57;1.00;;;21.00;99.90;;;;;;5058939;28;20043;-75
2022/07/06 11:19:56;;;;;;;4.80;0.73;;;21.00;99.90;;;;;;5053692;28;20125;-72
2022/07/06 11:22:24;;;;;;;1.88;0.57;;;20.80;99.90;;;;;;5072680;28;20049;-73
2022/07/06 11:24:55;;;;;;;4.63;0.88;;;21.10;99.90;;;;;;5056876;28;20120;-72
2022/07/06 11:27:22;;;;;;;6.75;1.10;;;21.40;99.90;;;;;;5058228;28;20045;-76
2022/07/06 11:29:48;;;;;;;3.67;0.70;;;21.60;99.90;;;;;;5046721;28;20036;-78
2022/07/06 11:32:14;;;;;;;4.63;0.77;;;21.90;99.90;;;;;;5041019;28;21969;-77
2022/07/06 11:34:44;;;;;;;2.75;0.60;;;22.00;99.60;;;;;;5063847;28;20079;-78
2022/07/06 11:37:12;;;;;;;2.25;0.60;;;21.60;99.00;;;;;;5047323;28;20047;-77
2022/07/06 11:39:43;;;;;;;3.00;0.70;;;21.60;99.30;;;;;;5043467;28;20033;-77
2022/07/06 11:42:10;;;;;;;3.75;0.70;;;21.70;99.10;;;;;;5042507;28;20045;-78
2022/07/06 11:44:36;;;;;;;3.58;0.77;;;22.00;99.20;;;;;;5071487;28;20040;-77
2022/07/06 11:47:03;;;;;;;2.25;0.73;;;22.10;98.60;;;;;;5086305;28;20051;-76
2022/07/06 11:49:30;;;;;;;5.35;0.98;;;22.30;99.00;;;;;;5084819;28;20480;-79
2022/07/06 11:51:56;;;;;;;7.32;1.02;;;22.40;99.20;;;;;;5071764;28;20056;-77
2022/07/06 11:54:23;;;;;;;4.65;0.88;;;23.00;99.00;;;;;;5034731;28;20048;-76
2022/07/06 11:56:53;;;;;;;6.40;0.63;;;22.80;98.30;;;;;;5044650;28;20395;-77
2022/07/06 11:59:29;;;;;;;3.50;0.65;;;22.40;98.50;;;;;;5079485;28;20054;-77
2022/07/06 12:02:00;;;;;;;5.40;0.68;;;22.20;98.60;;;;;;5068493;28;20072;-78
2022/07/06 12:04:25;;;;;;;2.95;0.65;;;22.60;98.30;;;;;;5057949;28;20037;-76
2022/07/06 12:06:51;;;;;;;3.50;0.70;;;22.90;98.80;;;;;;5056319;28;20033;-77
2022/07/06 12:09:20;;;;;;;3.38;0.80;;;22.90;97.50;;;;;;5086962;28;20036;-74
2022/07/06 12:11:46;;;;;;;4.45;2.03;;;22.70;98.00;;;;;;5042973;28;20065;-77
2022/07/06 12:14:20;;;;;;;2.47;1.08;;;22.40;98.10;;;;;;5064828;28;20040;-80
2022/07/06 12:16:48;;;;;;;5.22;0.88;;;22.70;98.10;;;;;;5053974;28;20306;-77
2022/07/06 12:19:14;;;;;;;2.15;0.70;;;22.70;98.60;;;;;;5027097;28;20037;-77
2022/07/06 12:21:51;;;;;;;5.38;0.93;;;22.40;98.60;;;;;;5080913;28;20044;-79
2022/07/06 12:24:22;;;;;;;4.72;0.75;;;22.10;98.10;;;;;;5080507;28;20123;-75
2022/07/06 12:26:48;;;;;;;4.32;0.70;;;22.00;98.20;;;;;;5056437;28;20132;-74
2022/07/06 12:29:14;;;;;;;10.10;1.10;;;22.00;98.50;;;;;;5049973;28;20514;-78
2022/07/06 12:31:55;;;;;;;5.07;0.70;;;22.10;98.90;;;;;;5082024;28;20039;-74
2022/07/06 12:34:25;;;;;;;7.60;1.17;;;22.40;98.10;;;;;;5050681;28;20110;-73
2022/07/06 12:36:56;;;;;;;3.90;0.73;;;22.40;98.00;;;;;;5066422;28;20500;-74
2022/07/06 12:39:26;;;;;;;4.40;0.90;;;22.80;98.20;;;;;;5046235;28;20531;-76
2022/07/06 12:42:01;;;;;;;2.85;0.80;;;23.20;98.30;;;;;;5052891;28;20047;-76
2022/07/06 12:44:27;;;;;;;5.38;0.68;;;23.50;97.90;;;;;;5033051;28;20514;-76
2022/07/06 12:47:03;;;;;;;2.65;0.77;;;23.10;98.30;;;;;;5068708;28;20032;-71
2022/07/06 12:49:29;;;;;;;6.43;0.80;;;22.90;97.80;;;;;;5059563;28;20107;-78
2022/07/06 12:52:00;;;;;;;8.02;1.10;;;22.50;98.10;;;;;;5023091;28;20160;-79
2022/07/06 12:54:44;;;;;;;2.92;0.70;;;22.50;98.50;;;;;;5063684;28;20041;-78
2022/07/06 12:57:13;;;;;;;4.57;0.80;;;22.30;98.60;;;;;;5078657;28;20044;-78
2022/07/06 12:59:45;;;;;;;3.15;0.65;;;22.10;98.20;;;;;;5044402;28;20048;-77
2022/07/06 13:02:19;;;;;;;2.45;0.80;;;21.80;98.60;;;;;;5048257;28;20071;-79
2022/07/06 13:04:58;;;;;;;1.85;0.60;;;21.50;98.90;;;;;;5027632;28;20045;-77